Kohju — H3XI — position and weather

sailwx.info

Track history (hours):
 
Tides and Currents Weather Stations Pressure Air Temp Water Temp Dewpoint Dewpoint Depression Visibility Wind Speed Wind Dir Waves Ship Positions

Kohju

Last reported at 2015-Jun-30 02:32 UTC. Time now 2015-Jul-02 23:09 UTC.
Position N 22°33' E 120°18'.

Length 289 m; draft 15.2 m.

Type: Cargo ship. MMSI: 357349000.

Date/timePositionNaut miles runAvg speedWind from/ knotsBaromVisibWave heightAir tempDewpointWater temp
2015-Jun-30 02:32N 22°33' E 120°18'4 4.2
2015-Jun-30 01:33N 22°33' E 120°13'1 0.8
2015-Jun-30 00:34N 22°33' E 120°14'0 0.2
2015-Jun-29 23:29N 22°33' E 120°15'0 0.0
2015-Jun-29 22:28N 22°33' E 120°15'0 0.0
2015-Jun-29 21:16N 22°33' E 120°15'0 0.0
2015-Jun-29 20:29N 22°33' E 120°15'0 0.1
2015-Jun-29 19:28N 22°33' E 120°14'0 0.1
2015-Jun-29 18:29N 22°33' E 120°14'0 0.0
2015-Jun-29 17:13N 22°33' E 120°14'0 0.1
2015-Jun-29 16:31N 22°33' E 120°14'0 0.1
2015-Jun-29 15:32N 22°33' E 120°14'0 0.1
2015-Jun-29 14:31N 22°34' E 120°14'0 0.1
2015-Jun-29 13:31N 22°34' E 120°14'0 0.1
2015-Jun-29 12:25N 22°34' E 120°14'0 0.1
2015-Jun-29 11:31N 22°34' E 120°14'0 0.1
2015-Jun-29 10:32N 22°34' E 120°14'0 0.2
2015-Jun-29 09:31N 22°34' E 120°15'0 0.0
2015-Jun-29 08:31N 22°34' E 120°15'0 0.0
2015-Jun-29 07:31N 22°34' E 120°15'0 0.1
2015-Jun-29 06:32N 22°34' E 120°15'0 0.0
2015-Jun-29 05:31N 22°34' E 120°15'0 0.1
2015-Jun-29 04:32N 22°34' E 120°14'0 0.1
2015-Jun-29 03:31N 22°34' E 120°14'0 0.2
2015-Jun-29 02:32N 22°33' E 120°14'3 2.7
2015-Jun-29 01:33N 22°33' E 120°11'5 5.5
2015-Jun-29 00:33N 22°28' E 120°09'1010.4
2015-Jun-28 23:33N 22°18' E 120°06'  
Track history (hours):
 
Tides and Currents Weather Stations Pressure Air Temp Water Temp Dewpoint Dewpoint Depression Visibility Wind Speed Wind Dir Waves Ship Positions

Kohju

Last reported at 2015-Jun-30 02:32 UTC. Time now 2015-Jul-02 23:09 UTC.
Position N 22°33' E 120°18'.

Length 289 m; draft 15.2 m.

Type: Cargo ship. MMSI: 357349000.

Date/timePositionNaut miles runAvg speedWind from/ knotsBaromVisibWave heightAir tempDewpointWater temp
2015-Jun-30 02:32N 22°33' E 120°18'4 4.2
2015-Jun-30 01:33N 22°33' E 120°13'1 0.8
2015-Jun-30 00:34N 22°33' E 120°14'0 0.2
2015-Jun-29 23:29N 22°33' E 120°15'0 0.0
2015-Jun-29 22:28N 22°33' E 120°15'0 0.0
2015-Jun-29 21:16N 22°33' E 120°15'0 0.0
2015-Jun-29 20:29N 22°33' E 120°15'0 0.1
2015-Jun-29 19:28N 22°33' E 120°14'0 0.1
2015-Jun-29 18:29N 22°33' E 120°14'0 0.0
2015-Jun-29 17:13N 22°33' E 120°14'0 0.1
2015-Jun-29 16:31N 22°33' E 120°14'0 0.1
2015-Jun-29 15:32N 22°33' E 120°14'0 0.1
2015-Jun-29 14:31N 22°34' E 120°14'0 0.1
2015-Jun-29 13:31N 22°34' E 120°14'0 0.1
2015-Jun-29 12:25N 22°34' E 120°14'0 0.1
2015-Jun-29 11:31N 22°34' E 120°14'0 0.1
2015-Jun-29 10:32N 22°34' E 120°14'0 0.2
2015-Jun-29 09:31N 22°34' E 120°15'0 0.0
2015-Jun-29 08:31N 22°34' E 120°15'0 0.0
2015-Jun-29 07:31N 22°34' E 120°15'0 0.1
2015-Jun-29 06:32N 22°34' E 120°15'0 0.0
2015-Jun-29 05:31N 22°34' E 120°15'0 0.1
2015-Jun-29 04:32N 22°34' E 120°14'0 0.1
2015-Jun-29 03:31N 22°34' E 120°14'0 0.2
2015-Jun-29 02:32N 22°33' E 120°14'3 2.7
2015-Jun-29 01:33N 22°33' E 120°11'5 5.5
2015-Jun-29 00:33N 22°28' E 120°09'1010.4
2015-Jun-28 23:33N 22°18' E 120°06'  

Dump ship's entire track history